sensor_id;sensor_type;location;lat;lon;timestamp;temperature;humidity
22173;DHT22;11252;50.596;17.648;2023-07-31T00:00:16;17.60;92.20
22173;DHT22;11252;50.596;17.648;2023-07-31T00:02:42;17.60;92.20
22173;DHT22;11252;50.596;17.648;2023-07-31T00:05:09;17.60;92.20
22173;DHT22;11252;50.596;17.648;2023-07-31T00:07:36;17.60;92.20
22173;DHT22;11252;50.596;17.648;2023-07-31T00:10:03;17.60;92.20
22173;DHT22;11252;50.596;17.648;2023-07-31T00:12:31;17.60;92.20
22173;DHT22;11252;50.596;17.648;2023-07-31T00:14:57;17.60;92.20
22173;DHT22;11252;50.596;17.648;2023-07-31T00:17:24;17.60;92.20
22173;DHT22;11252;50.596;17.648;2023-07-31T00:19:51;17.60;92.20
22173;DHT22;11252;50.596;17.648;2023-07-31T00:22:19;17.60;92.20
22173;DHT22;11252;50.596;17.648;2023-07-31T00:24:46;17.70;92.20
22173;DHT22;11252;50.596;17.648;2023-07-31T00:27:13;17.60;92.20
22173;DHT22;11252;50.596;17.648;2023-07-31T00:29:40;17.60;92.20
22173;DHT22;11252;50.596;17.648;2023-07-31T00:32:07;17.70;92.20
22173;DHT22;11252;50.596;17.648;2023-07-31T00:34:34;17.60;92.20
22173;DHT22;11252;50.596;17.648;2023-07-31T00:37:01;17.60;92.20
22173;DHT22;11252;50.596;17.648;2023-07-31T00:39:30;17.60;92.20
22173;DHT22;11252;50.596;17.648;2023-07-31T00:41:57;17.60;92.20
22173;DHT22;11252;50.596;17.648;2023-07-31T00:44:23;17.70;92.20
22173;DHT22;11252;50.596;17.648;2023-07-31T00:46:51;17.70;92.20
22173;DHT22;11252;50.596;17.648;2023-07-31T00:49:18;17.70;92.20
22173;DHT22;11252;50.596;17.648;2023-07-31T00:51:45;17.70;92.20
22173;DHT22;11252;50.596;17.648;2023-07-31T00:54:12;17.70;92.20
22173;DHT22;11252;50.596;17.648;2023-07-31T00:56:40;17.70;92.20
22173;DHT22;11252;50.596;17.648;2023-07-31T00:59:08;17.60;92.20
22173;DHT22;11252;50.596;17.648;2023-07-31T01:01:35;17.60;92.20
22173;DHT22;11252;50.596;17.648;2023-07-31T01:04:02;17.60;92.20
22173;DHT22;11252;50.596;17.648;2023-07-31T01:09:47;17.60;92.20
22173;DHT22;11252;50.596;17.648;2023-07-31T01:12:17;17.60;92.20
22173;DHT22;11252;50.596;17.648;2023-07-31T01:15:03;17.60;92.20
22173;DHT22;11252;50.596;17.648;2023-07-31T01:17:31;17.60;92.20
22173;DHT22;11252;50.596;17.648;2023-07-31T01:20:02;17.60;92.20
22173;DHT22;11252;50.596;17.648;2023-07-31T01:26:03;17.70;92.20
22173;DHT22;11252;50.596;17.648;2023-07-31T01:28:50;17.70;92.20
22173;DHT22;11252;50.596;17.648;2023-07-31T01:31:24;17.60;92.20
22173;DHT22;11252;50.596;17.648;2023-07-31T01:33:54;17.60;92.20
22173;DHT22;11252;50.596;17.648;2023-07-31T01:36:23;17.60;92.20
22173;DHT22;11252;50.596;17.648;2023-07-31T01:38:50;17.60;92.20
22173;DHT22;11252;50.596;17.648;2023-07-31T01:41:18;17.60;92.20
22173;DHT22;11252;50.596;17.648;2023-07-31T01:43:46;17.60;92.20
22173;DHT22;11252;50.596;17.648;2023-07-31T01:46:12;17.60;92.20
22173;DHT22;11252;50.596;17.648;2023-07-31T01:48:42;17.60;92.20
22173;DHT22;11252;50.596;17.648;2023-07-31T01:51:09;17.60;92.20
22173;DHT22;11252;50.596;17.648;2023-07-31T01:53:36;17.60;92.20
22173;DHT22;11252;50.596;17.648;2023-07-31T01:56:03;17.60;92.20
22173;DHT22;11252;50.596;17.648;2023-07-31T01:58:30;17.60;92.20
22173;DHT22;11252;50.596;17.648;2023-07-31T02:00:57;17.50;92.20
22173;DHT22;11252;50.596;17.648;2023-07-31T02:03:24;17.50;92.20
22173;DHT22;11252;50.596;17.648;2023-07-31T02:05:51;17.50;92.20
22173;DHT22;11252;50.596;17.648;2023-07-31T02:08:18;17.50;92.20
22173;DHT22;11252;50.596;17.648;2023-07-31T02:10:45;17.50;92.20
22173;DHT22;11252;50.596;17.648;2023-07-31T02:13:12;17.50;92.20
22173;DHT22;11252;50.596;17.648;2023-07-31T02:15:39;17.50;92.20
22173;DHT22;11252;50.596;17.648;2023-07-31T02:18:06;17.50;92.20
22173;DHT22;11252;50.596;17.648;2023-07-31T02:20:36;17.40;92.20
22173;DHT22;11252;50.596;17.648;2023-07-31T02:23:03;17.40;92.20
22173;DHT22;11252;50.596;17.648;2023-07-31T02:25:29;17.40;92.20
22173;DHT22;11252;50.596;17.648;2023-07-31T02:27:56;17.40;92.20
22173;DHT22;11252;50.596;17.648;2023-07-31T02:30:23;17.40;92.20
22173;DHT22;11252;50.596;17.648;2023-07-31T02:32:50;17.40;92.20
22173;DHT22;11252;50.596;17.648;2023-07-31T02:35:17;17.40;92.20
22173;DHT22;11252;50.596;17.648;2023-07-31T02:37:45;17.40;92.20
22173;DHT22;11252;50.596;17.648;2023-07-31T02:40:12;17.40;92.20
22173;DHT22;11252;50.596;17.648;2023-07-31T02:42:39;17.30;92.20
22173;DHT22;11252;50.596;17.648;2023-07-31T02:45:07;17.30;92.20
22173;DHT22;11252;50.596;17.648;2023-07-31T02:47:34;17.30;92.20
22173;DHT22;11252;50.596;17.648;2023-07-31T02:50:02;17.30;92.20
22173;DHT22;11252;50.596;17.648;2023-07-31T02:52:30;17.20;92.20
22173;DHT22;11252;50.596;17.648;2023-07-31T02:54:58;17.20;92.20
22173;DHT22;11252;50.596;17.648;2023-07-31T02:57:25;17.20;92.20
22173;DHT22;11252;50.596;17.648;2023-07-31T02:59:52;17.20;92.20
22173;DHT22;11252;50.596;17.648;2023-07-31T03:02:19;17.20;92.20
22173;DHT22;11252;50.596;17.648;2023-07-31T03:04:46;17.20;92.20
22173;DHT22;11252;50.596;17.648;2023-07-31T03:07:14;17.10;92.20
22173;DHT22;11252;50.596;17.648;2023-07-31T03:09:41;17.20;92.20
22173;DHT22;11252;50.596;17.648;2023-07-31T03:12:08;17.10;92.20
22173;DHT22;11252;50.596;17.648;2023-07-31T03:14:35;17.10;92.20
22173;DHT22;11252;50.596;17.648;2023-07-31T03:17:02;17.20;92.20
22173;DHT22;11252;50.596;17.648;2023-07-31T03:19:31;17.20;92.20
22173;DHT22;11252;50.596;17.648;2023-07-31T03:21:59;17.20;92.20
22173;DHT22;11252;50.596;17.648;2023-07-31T03:24:26;17.20;92.20
22173;DHT22;11252;50.596;17.648;2023-07-31T03:26:55;17.20;92.20
22173;DHT22;11252;50.596;17.648;2023-07-31T03:29:22;17.20;92.20
22173;DHT22;11252;50.596;17.648;2023-07-31T03:31:50;17.20;92.20
22173;DHT22;11252;50.596;17.648;2023-07-31T03:34:17;17.20;92.20
22173;DHT22;11252;50.596;17.648;2023-07-31T03:36:44;17.20;92.20
22173;DHT22;11252;50.596;17.648;2023-07-31T03:39:11;17.10;92.20
22173;DHT22;11252;50.596;17.648;2023-07-31T03:41:38;17.20;92.20
22173;DHT22;11252;50.596;17.648;2023-07-31T03:44:05;17.20;92.20
22173;DHT22;11252;50.596;17.648;2023-07-31T03:46:32;17.10;92.20
22173;DHT22;11252;50.596;17.648;2023-07-31T03:49:00;17.20;92.20
22173;DHT22;11252;50.596;17.648;2023-07-31T03:51:27;17.20;92.20
22173;DHT22;11252;50.596;17.648;2023-07-31T03:53:54;17.10;92.20
22173;DHT22;11252;50.596;17.648;2023-07-31T03:56:21;17.10;92.20
22173;DHT22;11252;50.596;17.648;2023-07-31T03:58:49;17.00;92.20
22173;DHT22;11252;50.596;17.648;2023-07-31T04:01:16;17.00;92.20
22173;DHT22;11252;50.596;17.648;2023-07-31T04:03:43;17.10;92.20
22173;DHT22;11252;50.596;17.648;2023-07-31T04:06:10;17.10;92.20
22173;DHT22;11252;50.596;17.648;2023-07-31T04:08:37;17.10;92.20
22173;DHT22;11252;50.596;17.648;2023-07-31T04:11:04;17.00;92.20
22173;DHT22;11252;50.596;17.648;2023-07-31T04:13:31;17.00;92.20
22173;DHT22;11252;50.596;17.648;2023-07-31T04:15:58;17.00;92.20
22173;DHT22;11252;50.596;17.648;2023-07-31T04:18:25;17.00;92.20
22173;DHT22;11252;50.596;17.648;2023-07-31T04:20:52;17.00;92.20
22173;DHT22;11252;50.596;17.648;2023-07-31T04:23:19;17.10;92.20
22173;DHT22;11252;50.596;17.648;2023-07-31T04:25:46;17.10;92.20
22173;DHT22;11252;50.596;17.648;2023-07-31T04:28:13;17.00;92.20
22173;DHT22;11252;50.596;17.648;2023-07-31T04:30:40;17.00;92.20
22173;DHT22;11252;50.596;17.648;2023-07-31T04:33:07;17.10;92.20
22173;DHT22;11252;50.596;17.648;2023-07-31T04:35:38;17.20;92.20
22173;DHT22;11252;50.596;17.648;2023-07-31T04:38:05;17.10;92.20
22173;DHT22;11252;50.596;17.648;2023-07-31T04:40:33;17.10;92.20
22173;DHT22;11252;50.596;17.648;2023-07-31T04:43:00;17.10;92.20
22173;DHT22;11252;50.596;17.648;2023-07-31T04:45:27;17.10;92.20
22173;DHT22;11252;50.596;17.648;2023-07-31T04:47:54;17.10;92.20
22173;DHT22;11252;50.596;17.648;2023-07-31T04:50:38;17.10;92.20
22173;DHT22;11252;50.596;17.648;2023-07-31T04:53:05;17.10;92.20
22173;DHT22;11252;50.596;17.648;2023-07-31T04:55:36;17.10;92.20
22173;DHT22;11252;50.596;17.648;2023-07-31T04:58:09;17.10;92.20
22173;DHT22;11252;50.596;17.648;2023-07-31T05:00:36;17.10;92.20
22173;DHT22;11252;50.596;17.648;2023-07-31T05:03:06;17.20;92.20
22173;DHT22;11252;50.596;17.648;2023-07-31T05:05:35;17.20;92.20
22173;DHT22;11252;50.596;17.648;2023-07-31T05:08:02;17.30;92.20
22173;DHT22;11252;50.596;17.648;2023-07-31T05:10:29;17.40;92.20
22173;DHT22;11252;50.596;17.648;2023-07-31T05:12:56;17.50;92.20
22173;DHT22;11252;50.596;17.648;2023-07-31T05:15:23;17.60;92.20
22173;DHT22;11252;50.596;17.648;2023-07-31T05:17:50;17.60;92.20
22173;DHT22;11252;50.596;17.648;2023-07-31T05:20:17;17.80;92.20
22173;DHT22;11252;50.596;17.648;2023-07-31T05:22:44;17.90;92.20
22173;DHT22;11252;50.596;17.648;2023-07-31T05:25:11;18.00;92.20
22173;DHT22;11252;50.596;17.648;2023-07-31T05:27:38;18.20;92.20
22173;DHT22;11252;50.596;17.648;2023-07-31T05:30:05;18.30;92.20
22173;DHT22;11252;50.596;17.648;2023-07-31T05:32:33;18.40;92.20
22173;DHT22;11252;50.596;17.648;2023-07-31T05:35:00;18.40;92.20
22173;DHT22;11252;50.596;17.648;2023-07-31T05:37:27;18.50;92.20
22173;DHT22;11252;50.596;17.648;2023-07-31T05:39:53;18.60;92.20
22173;DHT22;11252;50.596;17.648;2023-07-31T05:42:20;18.60;92.20
22173;DHT22;11252;50.596;17.648;2023-07-31T05:44:47;18.60;92.20
22173;DHT22;11252;50.596;17.648;2023-07-31T05:47:14;18.60;92.20
22173;DHT22;11252;50.596;17.648;2023-07-31T05:49:41;18.60;92.20
22173;DHT22;11252;50.596;17.648;2023-07-31T05:52:08;18.60;92.20
22173;DHT22;11252;50.596;17.648;2023-07-31T05:54:35;18.60;92.20
22173;DHT22;11252;50.596;17.648;2023-07-31T05:57:02;18.70;92.20
22173;DHT22;11252;50.596;17.648;2023-07-31T05:59:29;18.80;92.20
22173;DHT22;11252;50.596;17.648;2023-07-31T06:01:59;18.80;92.20
22173;DHT22;11252;50.596;17.648;2023-07-31T06:04:26;18.90;92.20
22173;DHT22;11252;50.596;17.648;2023-07-31T06:06:54;18.90;92.20
22173;DHT22;11252;50.596;17.648;2023-07-31T06:09:21;19.10;92.20
22173;DHT22;11252;50.596;17.648;2023-07-31T06:11:48;19.30;92.20
22173;DHT22;11252;50.596;17.648;2023-07-31T06:14:15;19.50;92.20
22173;DHT22;11252;50.596;17.648;2023-07-31T06:16:42;19.90;92.20
22173;DHT22;11252;50.596;17.648;2023-07-31T06:19:10;20.10;92.20
22173;DHT22;11252;50.596;17.648;2023-07-31T06:21:38;20.40;92.20
22173;DHT22;11252;50.596;17.648;2023-07-31T06:24:08;20.50;92.00
22173;DHT22;11252;50.596;17.648;2023-07-31T06:26:35;20.70;92.20
22173;DHT22;11252;50.596;17.648;2023-07-31T06:29:01;20.80;91.60
22173;DHT22;11252;50.596;17.648;2023-07-31T06:31:28;20.80;91.20
22173;DHT22;11252;50.596;17.648;2023-07-31T06:33:55;20.80;92.00
22173;DHT22;11252;50.596;17.648;2023-07-31T06:36:22;20.70;90.10
22173;DHT22;11252;50.596;17.648;2023-07-31T06:38:49;20.70;90.30
22173;DHT22;11252;50.596;17.648;2023-07-31T06:41:16;20.90;91.90
22173;DHT22;11252;50.596;17.648;2023-07-31T06:43:43;21.10;89.80
22173;DHT22;11252;50.596;17.648;2023-07-31T06:46:10;21.30;91.60
22173;DHT22;11252;50.596;17.648;2023-07-31T06:48:38;21.50;90.40
22173;DHT22;11252;50.596;17.648;2023-07-31T06:51:05;21.70;90.00
22173;DHT22;11252;50.596;17.648;2023-07-31T06:53:31;21.70;87.50
22173;DHT22;11252;50.596;17.648;2023-07-31T06:55:58;21.60;88.20
22173;DHT22;11252;50.596;17.648;2023-07-31T06:58:25;21.70;88.00
22173;DHT22;11252;50.596;17.648;2023-07-31T07:00:52;21.90;87.20
22173;DHT22;11252;50.596;17.648;2023-07-31T07:03:19;21.90;87.00
22173;DHT22;11252;50.596;17.648;2023-07-31T07:05:47;22.10;86.80
22173;DHT22;11252;50.596;17.648;2023-07-31T07:08:14;22.40;86.00
22173;DHT22;11252;50.596;17.648;2023-07-31T07:10:41;22.50;85.30
22173;DHT22;11252;50.596;17.648;2023-07-31T07:13:08;22.70;83.40
22173;DHT22;11252;50.596;17.648;2023-07-31T07:15:36;22.60;82.30
22173;DHT22;11252;50.596;17.648;2023-07-31T07:18:03;22.40;84.40
22173;DHT22;11252;50.596;17.648;2023-07-31T07:20:30;22.30;85.20
22173;DHT22;11252;50.596;17.648;2023-07-31T07:22:57;22.40;85.70
22173;DHT22;11252;50.596;17.648;2023-07-31T07:25:24;22.60;85.50
22173;DHT22;11252;50.596;17.648;2023-07-31T07:27:51;23.00;83.10
22173;DHT22;11252;50.596;17.648;2023-07-31T07:30:18;22.80;82.70
22173;DHT22;11252;50.596;17.648;2023-07-31T07:32:46;22.80;84.00
22173;DHT22;11252;50.596;17.648;2023-07-31T07:35:13;22.80;84.50
22173;DHT22;11252;50.596;17.648;2023-07-31T07:37:40;23.00;83.50
22173;DHT22;11252;50.596;17.648;2023-07-31T07:40:08;23.30;82.30
22173;DHT22;11252;50.596;17.648;2023-07-31T07:42:35;23.60;83.00
22173;DHT22;11252;50.596;17.648;2023-07-31T07:45:02;23.50;79.50
22173;DHT22;11252;50.596;17.648;2023-07-31T07:47:29;23.10;80.00
22173;DHT22;11252;50.596;17.648;2023-07-31T07:49:56;22.90;80.80
22173;DHT22;11252;50.596;17.648;2023-07-31T07:52:23;22.80;81.80
22173;DHT22;11252;50.596;17.648;2023-07-31T07:54:50;23.00;82.60
22173;DHT22;11252;50.596;17.648;2023-07-31T07:57:18;23.30;81.80
22173;DHT22;11252;50.596;17.648;2023-07-31T07:59:45;23.20;80.10
22173;DHT22;11252;50.596;17.648;2023-07-31T08:02:12;23.30;79.80
22173;DHT22;11252;50.596;17.648;2023-07-31T08:04:38;23.30;80.30
22173;DHT22;11252;50.596;17.648;2023-07-31T08:07:05;23.10;79.20
22173;DHT22;11252;50.596;17.648;2023-07-31T08:09:32;23.20;81.70
22173;DHT22;11252;50.596;17.648;2023-07-31T08:11:59;23.30;80.60
22173;DHT22;11252;50.596;17.648;2023-07-31T08:14:29;23.60;78.10
22173;DHT22;11252;50.596;17.648;2023-07-31T08:16:59;23.70;79.40
22173;DHT22;11252;50.596;17.648;2023-07-31T08:19:26;23.90;80.30
22173;DHT22;11252;50.596;17.648;2023-07-31T08:21:54;24.00;80.60
22173;DHT22;11252;50.596;17.648;2023-07-31T08:24:24;24.00;77.30
22173;DHT22;11252;50.596;17.648;2023-07-31T08:26:51;23.70;78.20
22173;DHT22;11252;50.596;17.648;2023-07-31T08:29:18;23.70;78.90
22173;DHT22;11252;50.596;17.648;2023-07-31T08:31:45;23.30;80.30
22173;DHT22;11252;50.596;17.648;2023-07-31T08:34:12;23.00;76.10
22173;DHT22;11252;50.596;17.648;2023-07-31T08:36:39;23.00;78.40
22173;DHT22;11252;50.596;17.648;2023-07-31T08:39:06;23.30;78.00
22173;DHT22;11252;50.596;17.648;2023-07-31T08:41:38;23.60;77.50
22173;DHT22;11252;50.596;17.648;2023-07-31T08:44:07;23.70;77.20
22173;DHT22;11252;50.596;17.648;2023-07-31T08:46:34;23.90;75.90
22173;DHT22;11252;50.596;17.648;2023-07-31T08:49:05;23.90;76.20
22173;DHT22;11252;50.596;17.648;2023-07-31T08:51:35;24.00;76.90
22173;DHT22;11252;50.596;17.648;2023-07-31T08:54:03;24.40;77.00
22173;DHT22;11252;50.596;17.648;2023-07-31T08:56:33;24.50;76.30
22173;DHT22;11252;50.596;17.648;2023-07-31T08:59:02;24.50;74.40
22173;DHT22;11252;50.596;17.648;2023-07-31T09:01:36;24.60;73.60
22173;DHT22;11252;50.596;17.648;2023-07-31T09:04:05;24.70;74.90
22173;DHT22;11252;50.596;17.648;2023-07-31T09:06:33;25.10;75.00
22173;DHT22;11252;50.596;17.648;2023-07-31T09:09:01;25.40;72.90
22173;DHT22;11252;50.596;17.648;2023-07-31T09:11:28;25.70;71.30
22173;DHT22;11252;50.596;17.648;2023-07-31T09:13:57;25.20;71.60
22173;DHT22;11252;50.596;17.648;2023-07-31T09:16:28;25.00;71.90
22173;DHT22;11252;50.596;17.648;2023-07-31T09:18:58;25.40;71.90
22173;DHT22;11252;50.596;17.648;2023-07-31T09:21:25;25.50;72.40
22173;DHT22;11252;50.596;17.648;2023-07-31T09:23:54;25.50;70.40
22173;DHT22;11252;50.596;17.648;2023-07-31T09:26:33;25.60;70.10
22173;DHT22;11252;50.596;17.648;2023-07-31T09:29:03;25.50;69.80
22173;DHT22;11252;50.596;17.648;2023-07-31T09:31:40;25.50;71.30
22173;DHT22;11252;50.596;17.648;2023-07-31T09:34:10;25.70;70.70
22173;DHT22;11252;50.596;17.648;2023-07-31T09:36:49;25.20;68.90
22173;DHT22;11252;50.596;17.648;2023-07-31T09:39:18;24.80;71.50
22173;DHT22;11252;50.596;17.648;2023-07-31T09:41:56;24.60;71.20
22173;DHT22;11252;50.596;17.648;2023-07-31T09:44:52;24.30;70.90
22173;DHT22;11252;50.596;17.648;2023-07-31T09:47:23;24.40;72.60
22173;DHT22;11252;50.596;17.648;2023-07-31T09:49:52;24.40;71.10
22173;DHT22;11252;50.596;17.648;2023-07-31T09:52:19;24.00;71.90
22173;DHT22;11252;50.596;17.648;2023-07-31T09:54:46;23.80;72.70
22173;DHT22;11252;50.596;17.648;2023-07-31T09:57:13;23.70;73.90
22173;DHT22;11252;50.596;17.648;2023-07-31T09:59:45;23.60;73.40
22173;DHT22;11252;50.596;17.648;2023-07-31T10:02:15;23.60;74.10
22173;DHT22;11252;50.596;17.648;2023-07-31T10:04:45;23.60;74.30
22173;DHT22;11252;50.596;17.648;2023-07-31T10:07:14;23.40;73.70
22173;DHT22;11252;50.596;17.648;2023-07-31T10:09:42;23.30;74.10
22173;DHT22;11252;50.596;17.648;2023-07-31T10:12:12;23.40;74.90
22173;DHT22;11252;50.596;17.648;2023-07-31T10:14:41;23.60;75.60
22173;DHT22;11252;50.596;17.648;2023-07-31T10:17:09;23.50;75.20
22173;DHT22;11252;50.596;17.648;2023-07-31T10:19:36;23.60;75.00
22173;DHT22;11252;50.596;17.648;2023-07-31T10:22:04;23.70;74.50
22173;DHT22;11252;50.596;17.648;2023-07-31T10:24:32;23.40;74.80
22173;DHT22;11252;50.596;17.648;2023-07-31T10:27:00;23.20;76.60
22173;DHT22;11252;50.596;17.648;2023-07-31T10:29:29;23.10;75.50
22173;DHT22;11252;50.596;17.648;2023-07-31T10:31:58;22.80;77.00
22173;DHT22;11252;50.596;17.648;2023-07-31T10:34:26;22.70;77.80
22173;DHT22;11252;50.596;17.648;2023-07-31T10:37:28;22.60;78.20
22173;DHT22;11252;50.596;17.648;2023-07-31T10:40:03;22.70;81.10
22173;DHT22;11252;50.596;17.648;2023-07-31T10:42:44;22.80;80.30
22173;DHT22;11252;50.596;17.648;2023-07-31T10:45:11;22.70;82.10
22173;DHT22;11252;50.596;17.648;2023-07-31T10:47:43;22.70;81.00
22173;DHT22;11252;50.596;17.648;2023-07-31T10:50:19;22.80;82.80
22173;DHT22;11252;50.596;17.648;2023-07-31T10:52:49;22.80;81.50
22173;DHT22;11252;50.596;17.648;2023-07-31T10:55:41;22.70;82.20
22173;DHT22;11252;50.596;17.648;2023-07-31T10:58:13;22.60;82.00
22173;DHT22;11252;50.596;17.648;2023-07-31T11:00:42;22.30;84.10
22173;DHT22;11252;50.596;17.648;2023-07-31T11:03:13;22.20;83.70
22173;DHT22;11252;50.596;17.648;2023-07-31T11:08:31;21.90;83.60
22173;DHT22;11252;50.596;17.648;2023-07-31T11:13:41;21.20;85.90
22173;DHT22;11252;50.596;17.648;2023-07-31T11:16:10;21.20;86.70
22173;DHT22;11252;50.596;17.648;2023-07-31T11:18:40;21.40;85.80
22173;DHT22;11252;50.596;17.648;2023-07-31T11:21:12;22.00;87.00
22173;DHT22;11252;50.596;17.648;2023-07-31T11:23:40;22.70;83.50
22173;DHT22;11252;50.596;17.648;2023-07-31T11:26:07;23.20;82.40
22173;DHT22;11252;50.596;17.648;2023-07-31T11:28:35;23.80;82.70
22173;DHT22;11252;50.596;17.648;2023-07-31T11:31:02;24.10;80.20
22173;DHT22;11252;50.596;17.648;2023-07-31T11:33:30;24.40;81.00
22173;DHT22;11252;50.596;17.648;2023-07-31T11:35:57;24.60;80.00
22173;DHT22;11252;50.596;17.648;2023-07-31T11:38:25;24.40;79.10
22173;DHT22;11252;50.596;17.648;2023-07-31T11:40:56;24.20;79.40
22173;DHT22;11252;50.596;17.648;2023-07-31T11:43:24;24.00;80.80
22173;DHT22;11252;50.596;17.648;2023-07-31T11:45:53;23.90;81.80
22173;DHT22;11252;50.596;17.648;2023-07-31T11:48:25;24.10;80.00
22173;DHT22;11252;50.596;17.648;2023-07-31T11:51:04;24.20;79.70
22173;DHT22;11252;50.596;17.648;2023-07-31T11:53:36;24.20;80.60
22173;DHT22;11252;50.596;17.648;2023-07-31T11:56:06;23.90;78.10
22173;DHT22;11252;50.596;17.648;2023-07-31T11:58:35;23.70;79.80
22173;DHT22;11252;50.596;17.648;2023-07-31T12:01:03;23.70;80.00
22173;DHT22;11252;50.596;17.648;2023-07-31T12:03:31;23.80;79.70
22173;DHT22;11252;50.596;17.648;2023-07-31T12:05:59;23.90;79.40
22173;DHT22;11252;50.596;17.648;2023-07-31T12:08:27;23.70;79.70
22173;DHT22;11252;50.596;17.648;2023-07-31T12:11:05;23.90;80.60
22173;DHT22;11252;50.596;17.648;2023-07-31T12:13:33;24.10;78.20
22173;DHT22;11252;50.596;17.648;2023-07-31T12:16:01;24.20;79.30
22173;DHT22;11252;50.596;17.648;2023-07-31T12:18:38;24.00;80.40
22173;DHT22;11252;50.596;17.648;2023-07-31T12:21:07;24.10;79.80
22173;DHT22;11252;50.596;17.648;2023-07-31T12:23:36;24.00;78.40
22173;DHT22;11252;50.596;17.648;2023-07-31T12:26:10;23.90;78.70
22173;DHT22;11252;50.596;17.648;2023-07-31T12:28:42;24.00;80.00
22173;DHT22;11252;50.596;17.648;2023-07-31T12:31:11;24.00;81.20
22173;DHT22;11252;50.596;17.648;2023-07-31T12:33:40;24.30;79.20
22173;DHT22;11252;50.596;17.648;2023-07-31T12:36:10;24.30;78.40
22173;DHT22;11252;50.596;17.648;2023-07-31T12:38:37;24.30;78.50
22173;DHT22;11252;50.596;17.648;2023-07-31T12:41:05;24.30;78.50
22173;DHT22;11252;50.596;17.648;2023-07-31T12:43:34;24.30;77.60
22173;DHT22;11252;50.596;17.648;2023-07-31T12:46:02;24.30;77.40
22173;DHT22;11252;50.596;17.648;2023-07-31T12:48:29;24.20;77.30
22173;DHT22;11252;50.596;17.648;2023-07-31T12:50:56;24.10;78.50
22173;DHT22;11252;50.596;17.648;2023-07-31T12:53:23;24.20;77.70
22173;DHT22;11252;50.596;17.648;2023-07-31T12:55:50;24.20;78.10
22173;DHT22;11252;50.596;17.648;2023-07-31T12:58:17;24.20;77.60
22173;DHT22;11252;50.596;17.648;2023-07-31T13:00:44;24.10;78.40
22173;DHT22;11252;50.596;17.648;2023-07-31T13:03:10;24.10;77.70
22173;DHT22;11252;50.596;17.648;2023-07-31T13:05:37;24.10;78.20
22173;DHT22;11252;50.596;17.648;2023-07-31T13:08:05;23.90;77.60
22173;DHT22;11252;50.596;17.648;2023-07-31T13:10:32;23.80;77.80
22173;DHT22;11252;50.596;17.648;2023-07-31T13:12:59;23.90;79.90
22173;DHT22;11252;50.596;17.648;2023-07-31T13:15:26;23.90;78.50
22173;DHT22;11252;50.596;17.648;2023-07-31T13:17:53;24.10;79.30
22173;DHT22;11252;50.596;17.648;2023-07-31T13:20:20;24.20;77.20
22173;DHT22;11252;50.596;17.648;2023-07-31T13:22:47;24.10;76.60
22173;DHT22;11252;50.596;17.648;2023-07-31T13:25:14;23.70;76.70
22173;DHT22;11252;50.596;17.648;2023-07-31T13:27:40;23.60;78.00
22173;DHT22;11252;50.596;17.648;2023-07-31T13:30:08;23.50;78.70
22173;DHT22;11252;50.596;17.648;2023-07-31T13:32:35;23.60;78.90
22173;DHT22;11252;50.596;17.648;2023-07-31T13:35:06;23.90;77.70
22173;DHT22;11252;50.596;17.648;2023-07-31T13:37:34;24.00;77.10
22173;DHT22;11252;50.596;17.648;2023-07-31T13:40:01;24.00;77.00
22173;DHT22;11252;50.596;17.648;2023-07-31T13:42:32;24.10;77.60
22173;DHT22;11252;50.596;17.648;2023-07-31T13:44:59;24.20;78.10
22173;DHT22;11252;50.596;17.648;2023-07-31T13:47:30;24.40;77.10
22173;DHT22;11252;50.596;17.648;2023-07-31T13:49:58;24.30;76.00
22173;DHT22;11252;50.596;17.648;2023-07-31T13:52:24;24.30;77.40
22173;DHT22;11252;50.596;17.648;2023-07-31T13:54:51;24.30;77.70
22173;DHT22;11252;50.596;17.648;2023-07-31T13:57:18;24.20;76.80
22173;DHT22;11252;50.596;17.648;2023-07-31T13:59:45;24.00;76.50
22173;DHT22;11252;50.596;17.648;2023-07-31T14:02:12;24.00;77.30
22173;DHT22;11252;50.596;17.648;2023-07-31T14:04:40;24.20;77.60
22173;DHT22;11252;50.596;17.648;2023-07-31T14:07:07;24.30;76.60
22173;DHT22;11252;50.596;17.648;2023-07-31T14:09:34;24.10;76.20
22173;DHT22;11252;50.596;17.648;2023-07-31T14:12:01;24.00;78.00
22173;DHT22;11252;50.596;17.648;2023-07-31T14:14:28;24.10;77.00
22173;DHT22;11252;50.596;17.648;2023-07-31T14:16:55;24.30;78.30
22173;DHT22;11252;50.596;17.648;2023-07-31T14:19:22;24.30;76.90
22173;DHT22;11252;50.596;17.648;2023-07-31T14:21:51;24.00;76.00
22173;DHT22;11252;50.596;17.648;2023-07-31T14:24:35;23.90;77.50
22173;DHT22;11252;50.596;17.648;2023-07-31T14:27:02;24.00;77.80
22173;DHT22;11252;50.596;17.648;2023-07-31T14:29:29;23.90;78.00
22173;DHT22;11252;50.596;17.648;2023-07-31T14:31:56;23.90;78.20
22173;DHT22;11252;50.596;17.648;2023-07-31T14:34:24;23.80;77.80
22173;DHT22;11252;50.596;17.648;2023-07-31T14:36:50;23.70;77.80
22173;DHT22;11252;50.596;17.648;2023-07-31T14:39:17;23.60;78.60
22173;DHT22;11252;50.596;17.648;2023-07-31T14:41:44;23.70;80.10
22173;DHT22;11252;50.596;17.648;2023-07-31T14:44:11;23.80;79.70
22173;DHT22;11252;50.596;17.648;2023-07-31T14:46:38;23.80;78.20
22173;DHT22;11252;50.596;17.648;2023-07-31T14:49:06;23.90;79.20
22173;DHT22;11252;50.596;17.648;2023-07-31T14:51:33;24.10;77.70
22173;DHT22;11252;50.596;17.648;2023-07-31T14:54:00;24.10;78.00
22173;DHT22;11252;50.596;17.648;2023-07-31T14:56:26;24.10;78.20
22173;DHT22;11252;50.596;17.648;2023-07-31T14:58:54;24.20;78.10
22173;DHT22;11252;50.596;17.648;2023-07-31T15:01:23;24.30;78.40
22173;DHT22;11252;50.596;17.648;2023-07-31T15:03:50;24.20;79.00
22173;DHT22;11252;50.596;17.648;2023-07-31T15:06:17;24.20;78.20
22173;DHT22;11252;50.596;17.648;2023-07-31T15:08:44;24.20;78.60
22173;DHT22;11252;50.596;17.648;2023-07-31T15:11:11;24.10;78.10
22173;DHT22;11252;50.596;17.648;2023-07-31T15:13:38;24.00;78.00
22173;DHT22;11252;50.596;17.648;2023-07-31T15:16:05;23.80;78.10
22173;DHT22;11252;50.596;17.648;2023-07-31T15:18:32;23.60;78.80
22173;DHT22;11252;50.596;17.648;2023-07-31T15:20:59;23.70;79.40
22173;DHT22;11252;50.596;17.648;2023-07-31T15:23:26;23.70;79.10
22173;DHT22;11252;50.596;17.648;2023-07-31T15:25:53;23.60;78.60
22173;DHT22;11252;50.596;17.648;2023-07-31T15:28:20;23.70;79.90
22173;DHT22;11252;50.596;17.648;2023-07-31T15:30:47;23.80;79.10
22173;DHT22;11252;50.596;17.648;2023-07-31T15:33:15;23.80;80.00